Terminal Aerodrome Forecast
Issued by NWS

Home | Current Version | Previous Version | Text Only | Print | Product List | Glossary On
Versions: 1 2 3 4 5 6 7 8 9 10 11 12
000
FTUS43 KMQT 231123
TAFIWD
TAF
KIWD 231123Z 2312/2412 25007KT P6SM SKC
     FM231500 28013G21KT P6SM SCT035
     FM231800 29015G28KT P6SM SCT025 BKN035
     FM240100 29013KT P6SM BKN040
     FM240500 28009KT P6SM SCT015 BKN030=

USA.gov is the U.S. government's official web portal to all federal, state and local government web resources and services.